Time;durP1;ratioP1;P1;durP2;ratioP2;P2;SDS_P1;SDS_P2;PMS_P1;PMS_P2;Temp;Humidity;BMP_temperature;BMP_pressure;BME280_temperature;BME280_humidity;BME280_pressure;Samples;Min_cycle;Max_cycle;Signal;HPM_P1;HPM_P2
2022/04/21 00:02:05;;;;;;;13.00;8.15;;;;;;;;;;5093241;28;20065;-74
2022/04/21 00:04:31;;;;;;;12.23;7.53;;;;;;;;;;5092747;28;20089;-74
2022/04/21 00:06:57;;;;;;;16.05;8.60;;;;;;;;;;5092737;28;20063;-74
2022/04/21 00:09:23;;;;;;;11.90;7.97;;;;;;;;;;5092628;28;20043;-74
2022/04/21 00:11:50;;;;;;;13.20;8.25;;;;;;;;;;5092297;28;20068;-74
2022/04/21 00:14:16;;;;;;;14.48;9.20;;;;;;;;;;5092980;28;20374;-74
2022/04/21 00:16:42;;;;;;;13.40;9.05;;;;;;;;;;5092726;28;20035;-74
2022/04/21 00:19:09;;;;;;;13.23;9.02;;;;;;;;;;5092315;28;20086;-74
2022/04/21 00:24:20;;;;;;;17.40;10.13;;;;;;;;;;5092638;28;20040;-74
2022/04/21 00:26:46;;;;;;;14.32;9.45;;;;;;;;;;5090727;28;20074;-74
2022/04/21 00:29:13;;;;;;;15.25;9.30;;;;;;;;;;5075632;28;20043;-74
2022/04/21 00:31:40;;;;;;;13.55;9.27;;;;;;;;;;5092256;28;20043;-74
2022/04/21 00:34:06;;;;;;;18.20;10.30;;;;;;;;;;5091653;28;20048;-74
2022/04/21 00:36:32;;;;;;;13.90;9.60;;;;;;;;;;5090753;28;20035;-74
2022/04/21 00:38:58;;;;;;;15.63;9.45;;;;;;;;;;5092400;28;20398;-74
2022/04/21 00:41:24;;;;;;;16.10;10.32;;;;;;;;;;5092477;28;20309;-74
2022/04/21 00:43:51;;;;;;;15.75;10.38;;;;;;;;;;5075431;28;20039;-74
2022/04/21 00:46:24;;;;;;;16.27;9.82;;;;;;;;;;5091608;28;20168;-74
2022/04/21 00:48:50;;;;;;;15.50;10.27;;;;;;;;;;5075001;28;20078;-74
2022/04/21 00:51:16;;;;;;;14.88;10.05;;;;;;;;;;5091755;28;20431;-74
2022/04/21 00:53:43;;;;;;;15.35;9.90;;;;;;;;;;5092069;28;20039;-74
2022/04/21 00:56:10;;;;;;;16.48;11.07;;;;;;;;;;5092297;28;20402;-74
2022/04/21 00:58:37;;;;;;;15.57;11.02;;;;;;;;;;5092226;28;20040;-74
2022/04/21 01:02:46;;;;;;;16.30;11.02;;;;;;;;;;5074839;28;20771;-74
2022/04/21 01:03:50;;;;;;;14.68;11.23;;;;;;;;;;5091896;28;20134;-74
2022/04/21 01:06:16;;;;;;;19.45;11.65;;;;;;;;;;5091534;28;20093;-74
2022/04/21 01:08:42;;;;;;;15.98;11.00;;;;;;;;;;5091673;28;20597;-74
2022/04/21 01:11:09;;;;;;;14.45;11.02;;;;;;;;;;5090957;28;20122;-74
2022/04/21 01:13:36;;;;;;;21.63;11.57;;;;;;;;;;5091416;28;20051;-74
2022/04/21 01:16:02;;;;;;;17.48;11.05;;;;;;;;;;5092023;28;20039;-74
2022/04/21 01:18:28;;;;;;;15.30;10.73;;;;;;;;;;5091332;28;20051;-74
2022/04/21 01:20:54;;;;;;;15.80;11.48;;;;;;;;;;5091333;28;20039;-74
2022/04/21 01:23:21;;;;;;;16.85;11.43;;;;;;;;;;5091153;28;20122;-74
2022/04/21 01:25:47;;;;;;;15.82;11.85;;;;;;;;;;5091105;28;20043;-74
2022/04/21 01:28:13;;;;;;;15.98;11.52;;;;;;;;;;5091417;28;20494;-74
2022/04/21 01:30:39;;;;;;;16.77;11.00;;;;;;;;;;5091374;28;20044;-74
2022/04/21 01:33:05;;;;;;;18.40;12.00;;;;;;;;;;5090985;28;20094;-74
2022/04/21 01:35:32;;;;;;;20.73;12.25;;;;;;;;;;5091061;28;20128;-74
2022/04/21 01:43:27;;;;;;;18.75;11.50;;;;;;;;;;5091271;28;20096;-74
2022/04/21 01:45:54;;;;;;;17.17;12.75;;;;;;;;;;5090605;28;20126;-74
2022/04/21 01:48:20;;;;;;;20.67;13.00;;;;;;;;;;5091081;28;20491;-74
2022/04/21 01:50:46;;;;;;;17.90;12.98;;;;;;;;;;5081272;28;20040;-74
2022/04/21 01:53:12;;;;;;;21.95;14.18;;;;;;;;;;5084395;28;20127;-74
2022/04/21 01:55:38;;;;;;;19.25;12.98;;;;;;;;;;5090637;28;20051;-74
2022/04/21 01:58:05;;;;;;;17.30;12.43;;;;;;;;;;5090618;28;20080;-73
2022/04/21 02:00:31;;;;;;;18.45;13.43;;;;;;;;;;5090740;28;20043;-74
2022/04/21 02:02:57;;;;;;;18.98;12.75;;;;;;;;;;5073807;28;20071;-74
2022/04/21 02:05:23;;;;;;;17.73;12.65;;;;;;;;;;5073889;28;20040;-74
2022/04/21 02:07:50;;;;;;;17.50;12.70;;;;;;;;;;5090715;28;20090;-74
2022/04/21 02:10:17;;;;;;;19.25;13.80;;;;;;;;;;5090461;28;20059;-74
2022/04/21 02:12:45;;;;;;;17.55;13.07;;;;;;;;;;5073563;28;20035;-74
2022/04/21 02:15:11;;;;;;;20.45;13.70;;;;;;;;;;5090730;28;20506;-74
2022/04/21 02:17:38;;;;;;;18.20;14.05;;;;;;;;;;5090412;28;20042;-74
2022/04/21 02:20:05;;;;;;;19.60;13.57;;;;;;;;;;5090736;28;20047;-74
2022/04/21 02:22:32;;;;;;;19.42;13.63;;;;;;;;;;5092418;28;20039;-73
2022/04/21 02:24:58;;;;;;;20.15;13.98;;;;;;;;;;5094904;28;20462;-74
2022/04/21 02:27:24;;;;;;;20.70;14.73;;;;;;;;;;5086934;28;20044;-73
2022/04/21 02:29:52;;;;;;;21.25;13.90;;;;;;;;;;5077602;28;20040;-73
2022/04/21 02:32:18;;;;;;;19.75;14.73;;;;;;;;;;5094715;28;20390;-74
2022/04/21 02:34:44;;;;;;;22.13;15.27;;;;;;;;;;5094491;28;20051;-73
2022/04/21 02:37:11;;;;;;;20.27;15.07;;;;;;;;;;5094876;28;20407;-73
2022/04/21 02:39:37;;;;;;;21.83;15.65;;;;;;;;;;5077594;28;20039;-74
2022/04/21 02:42:04;;;;;;;18.73;13.60;;;;;;;;;;5094609;28;20445;-74
2022/04/21 02:44:31;;;;;;;21.50;15.07;;;;;;;;;;5094691;28;20036;-74
2022/04/21 02:46:58;;;;;;;21.60;14.23;;;;;;;;;;5094644;28;20036;-74
2022/04/21 02:49:24;;;;;;;19.05;13.93;;;;;;;;;;5094461;28;20426;-74
2022/04/21 02:51:51;;;;;;;21.63;15.05;;;;;;;;;;5094074;28;20475;-74
2022/04/21 02:57:20;;;;;;;19.65;14.15;;;;;;;;;;5078706;28;20043;-74
2022/04/21 02:59:47;;;;;;;20.13;14.80;;;;;;;;;;5094136;28;20134;-74
2022/04/21 03:02:13;;;;;;;19.98;13.82;;;;;;;;;;5094172;28;20047;-74
2022/04/21 03:04:39;;;;;;;18.75;13.57;;;;;;;;;;5094063;28;20522;-74
2022/04/21 03:07:05;;;;;;;21.08;14.50;;;;;;;;;;5094350;28;20556;-74
2022/04/21 03:09:32;;;;;;;20.70;15.25;;;;;;;;;;5076905;28;20084;-74
2022/04/21 03:12:02;;;;;;;21.60;15.02;;;;;;;;;;5093705;28;20253;-74
2022/04/21 03:14:28;;;;;;;20.42;14.02;;;;;;;;;;5094131;28;20040;-74
2022/04/21 03:16:54;;;;;;;21.13;14.68;;;;;;;;;;5093647;28;20407;-74
2022/04/21 03:19:20;;;;;;;19.35;14.40;;;;;;;;;;5093877;28;20148;-74
2022/04/21 03:24:32;;;;;;;21.20;14.35;;;;;;;;;;5112098;27;20411;-74
2022/04/21 03:26:58;;;;;;;18.33;12.88;;;;;;;;;;5076860;28;20501;-74
2022/04/21 03:29:25;;;;;;;18.45;13.27;;;;;;;;;;5093395;28;20051;-74
2022/04/21 03:31:51;;;;;;;18.27;12.85;;;;;;;;;;5091541;28;20112;-74
2022/04/21 03:34:18;;;;;;;20.92;14.15;;;;;;;;;;5092519;28;20040;-74
2022/04/21 03:36:47;;;;;;;17.45;13.32;;;;;;;;;;5092807;28;20429;-74
2022/04/21 03:39:14;;;;;;;17.30;12.80;;;;;;;;;;5093182;28;20036;-74
2022/04/21 03:41:41;;;;;;;19.50;13.65;;;;;;;;;;5093678;28;20044;-74
2022/04/21 03:44:07;;;;;;;18.77;14.23;;;;;;;;;;5092773;28;20036;-74
2022/04/21 03:46:33;;;;;;;19.80;13.48;;;;;;;;;;5093353;28;20039;-74
2022/04/21 03:48:59;;;;;;;18.98;13.35;;;;;;;;;;5093004;28;20043;-73
2022/04/21 03:51:27;;;;;;;19.13;12.57;;;;;;;;;;5093032;28;20047;-74
2022/04/21 03:53:53;;;;;;;19.15;13.82;;;;;;;;;;5092916;28;20043;-74
2022/04/21 03:56:19;;;;;;;19.30;14.07;;;;;;;;;;5092929;28;20036;-74
2022/04/21 03:58:46;;;;;;;18.67;13.32;;;;;;;;;;5092909;28;20081;-73
2022/04/21 04:01:12;;;;;;;19.67;14.50;;;;;;;;;;5092722;28;20039;-74
2022/04/21 04:03:38;;;;;;;20.67;13.73;;;;;;;;;;5076215;28;20082;-74
2022/04/21 04:10:51;;;;;;;18.88;13.10;;;;;;;;;;5093297;28;20108;-73
2022/04/21 04:11:36;;;;;;;20.13;13.75;;;;;;;;;;5092534;28;20394;-74
2022/04/21 04:14:05;;;;;;;17.52;13.07;;;;;;;;;;5092948;28;20074;-74
2022/04/21 04:16:33;;;;;;;18.42;13.18;;;;;;;;;;5092523;28;20306;-73
2022/04/21 04:19:00;;;;;;;20.90;13.25;;;;;;;;;;5092930;28;20062;-73
2022/04/21 04:21:26;;;;;;;17.25;13.10;;;;;;;;;;5080444;28;20066;-73
2022/04/21 04:23:53;;;;;;;20.08;13.55;;;;;;;;;;5092084;28;20044;-74
2022/04/21 04:26:19;;;;;;;17.88;12.45;;;;;;;;;;5092307;28;20039;-74
2022/04/21 04:28:45;;;;;;;18.27;12.65;;;;;;;;;;5092271;28;20050;-74
2022/04/21 04:31:11;;;;;;;18.92;14.10;;;;;;;;;;5092586;28;20050;-74
2022/04/21 04:33:37;;;;;;;19.30;13.65;;;;;;;;;;5071676;28;20063;-74
2022/04/21 04:36:04;;;;;;;20.27;13.43;;;;;;;;;;5088941;28;20123;-73
2022/04/21 04:38:30;;;;;;;20.92;14.27;;;;;;;;;;5088583;28;20123;-74
2022/04/21 04:42:15;;;;;;;19.13;13.13;;;;;;;;;;5088398;28;20040;-73
2022/04/21 04:43:42;;;;;;;18.65;12.77;;;;;;;;;;5088415;28;20126;-74
2022/04/21 04:48:54;;;;;;;21.15;12.98;;;;;;;;;;5087479;28;20136;-73
2022/04/21 04:51:21;;;;;;;19.23;13.05;;;;;;;;;;5070041;28;20520;-73
2022/04/21 04:53:47;;;;;;;19.67;13.93;;;;;;;;;;5087933;28;20036;-73
2022/04/21 04:56:14;;;;;;;18.67;13.15;;;;;;;;;;5088321;28;20447;-73
2022/04/21 04:58:40;;;;;;;16.67;12.48;;;;;;;;;;5087985;28;20128;-73
2022/04/21 05:01:06;;;;;;;18.25;13.27;;;;;;;;;;5087418;28;20036;-73
2022/04/21 05:03:33;;;;;;;18.40;13.02;;;;;;;;;;5086250;28;20124;-73
2022/04/21 05:05:59;;;;;;;18.45;13.38;;;;;;;;;;5083760;28;20046;-74
2022/04/21 05:08:25;;;;;;;18.13;13.40;;;;;;;;;;5121812;27;20057;-73
2022/04/21 05:10:53;;;;;;;19.10;13.43;;;;;;;;;;5088184;28;20041;-74
2022/04/21 05:13:19;;;;;;;21.55;14.88;;;;;;;;;;5087203;28;20040;-73
2022/04/21 05:15:45;;;;;;;22.55;14.32;;;;;;;;;;5070644;28;20039;-73
2022/04/21 05:18:12;;;;;;;17.58;12.15;;;;;;;;;;5081858;28;20047;-73
2022/04/21 05:20:38;;;;;;;18.73;13.55;;;;;;;;;;5077275;28;20040;-73
2022/04/21 05:23:06;;;;;;;23.38;14.57;;;;;;;;;;5088190;28;20052;-74
2022/04/21 05:25:36;;;;;;;21.45;14.10;;;;;;;;;;5087311;28;20048;-73
2022/04/21 05:28:02;;;;;;;19.58;14.35;;;;;;;;;;5070560;28;20190;-73
2022/04/21 05:33:18;;;;;;;20.10;14.10;;;;;;;;;;5086319;28;20100;-74
2022/04/21 05:35:45;;;;;;;20.40;14.18;;;;;;;;;;5085457;28;20052;-74
2022/04/21 05:38:11;;;;;;;22.10;14.52;;;;;;;;;;5096256;28;20043;-74
2022/04/21 05:40:38;;;;;;;22.77;14.63;;;;;;;;;;5087937;28;20134;-73
2022/04/21 05:43:07;;;;;;;19.27;14.40;;;;;;;;;;5088066;28;20061;-74
2022/04/21 05:45:33;;;;;;;17.63;12.73;;;;;;;;;;5087411;28;20036;-73
2022/04/21 05:47:59;;;;;;;22.85;15.05;;;;;;;;;;5056945;28;20395;-74
2022/04/21 05:50:26;;;;;;;21.67;14.88;;;;;;;;;;5079002;28;20036;-74
2022/04/21 05:52:53;;;;;;;21.90;14.65;;;;;;;;;;5094774;28;20035;-73
2022/04/21 05:55:19;;;;;;;20.30;14.18;;;;;;;;;;5087529;28;20028;-74
2022/04/21 05:57:45;;;;;;;22.77;14.70;;;;;;;;;;5087565;28;20126;-74
2022/04/21 06:00:11;;;;;;;20.73;14.10;;;;;;;;;;5083567;28;20040;-73
2022/04/21 06:02:38;;;;;;;18.17;13.30;;;;;;;;;;5080965;28;20385;-73
2022/04/21 06:05:05;;;;;;;20.10;13.88;;;;;;;;;;5087449;28;20040;-74
2022/04/21 06:07:31;;;;;;;20.65;14.00;;;;;;;;;;5085297;28;20040;-75
2022/04/21 06:09:57;;;;;;;19.88;14.25;;;;;;;;;;5087162;28;20074;-74
2022/04/21 06:12:25;;;;;;;19.88;13.35;;;;;;;;;;5087126;28;20040;-74
2022/04/21 06:14:52;;;;;;;17.75;13.68;;;;;;;;;;5072342;28;20487;-74
2022/04/21 06:17:18;;;;;;;17.08;12.35;;;;;;;;;;5071655;28;20526;-74
2022/04/21 06:19:44;;;;;;;18.27;12.68;;;;;;;;;;5102568;28;20044;-74
2022/04/21 06:22:11;;;;;;;19.33;12.60;;;;;;;;;;5098921;28;20044;-74
2022/04/21 06:24:38;;;;;;;16.17;10.48;;;;;;;;;;5088844;28;20043;-74
2022/04/21 06:27:04;;;;;;;15.40;10.98;;;;;;;;;;5088668;28;20076;-75
2022/04/21 06:29:31;;;;;;;15.52;11.00;;;;;;;;;;5088565;28;20039;-78
2022/04/21 06:31:57;;;;;;;15.77;9.65;;;;;;;;;;5089152;28;20078;-77
2022/04/21 06:34:23;;;;;;;14.30;9.52;;;;;;;;;;5088558;28;20059;-77
2022/04/21 06:36:50;;;;;;;16.30;8.95;;;;;;;;;;5087029;28;20036;-76
2022/04/21 06:39:16;;;;;;;13.23;7.72;;;;;;;;;;5087436;28;20439;-77
2022/04/21 06:41:42;;;;;;;13.48;8.93;;;;;;;;;;5086983;28;20078;-76
2022/04/21 06:49:57;;;;;;;11.88;7.55;;;;;;;;;;5088192;28;20043;-77
2022/04/21 06:52:23;;;;;;;11.30;7.15;;;;;;;;;;5086782;28;20044;-77
2022/04/21 06:54:50;;;;;;;9.93;6.32;;;;;;;;;;5085363;28;20074;-77
2022/04/21 06:57:23;;;;;;;11.27;7.05;;;;;;;;;;5069075;28;20044;-78
2022/04/21 06:59:49;;;;;;;10.63;6.15;;;;;;;;;;5085625;28;20061;-77
2022/04/21 07:02:16;;;;;;;13.10;6.22;;;;;;;;;;5085568;28;20040;-77
2022/04/21 07:04:42;;;;;;;9.13;6.00;;;;;;;;;;5117575;28;20037;-77
2022/04/21 07:07:08;;;;;;;9.88;5.18;;;;;;;;;;5085543;28;20035;-76
2022/04/21 07:09:34;;;;;;;9.43;5.13;;;;;;;;;;5071128;28;20032;-76
2022/04/21 07:12:01;;;;;;;9.88;5.63;;;;;;;;;;5089316;28;20188;-77
2022/04/21 07:14:27;;;;;;;10.20;4.97;;;;;;;;;;5090491;28;20051;-76
2022/04/21 07:16:55;;;;;;;9.25;5.40;;;;;;;;;;5082949;28;20037;-77
2022/04/21 07:19:22;;;;;;;8.60;5.43;;;;;;;;;;5069124;28;20507;-77
2022/04/21 07:21:48;;;;;;;8.45;4.75;;;;;;;;;;5089375;28;20039;-76
2022/04/21 07:24:14;;;;;;;8.30;5.00;;;;;;;;;;5088361;28;20051;-78
2022/04/21 07:26:41;;;;;;;7.72;4.65;;;;;;;;;;5090325;28;20056;-78
2022/04/21 07:29:07;;;;;;;8.43;4.50;;;;;;;;;;5072789;28;20036;-79
2022/04/21 07:31:35;;;;;;;8.68;4.82;;;;;;;;;;5073361;28;20469;-79
2022/04/21 07:34:01;;;;;;;6.85;4.00;;;;;;;;;;5072053;28;20151;-79
2022/04/21 07:36:27;;;;;;;6.85;4.22;;;;;;;;;;5071884;28;20495;-79
2022/04/21 07:38:54;;;;;;;7.75;4.07;;;;;;;;;;5071923;28;20522;-78
2022/04/21 07:41:20;;;;;;;8.57;4.70;;;;;;;;;;5088479;28;20097;-79
2022/04/21 07:43:47;;;;;;;6.53;3.95;;;;;;;;;;5071607;28;20108;-79
2022/04/21 07:46:14;;;;;;;7.65;4.25;;;;;;;;;;5071408;28;20040;-77
2022/04/21 07:51:26;;;;;;;8.18;4.18;;;;;;;;;;5086062;28;20441;-79
2022/04/21 07:53:52;;;;;;;8.40;4.53;;;;;;;;;;5072566;28;20089;-78
2022/04/21 07:56:19;;;;;;;8.55;4.20;;;;;;;;;;5088789;28;20072;-77
2022/04/21 07:58:45;;;;;;;7.78;4.20;;;;;;;;;;5071804;28;20495;-77
2022/04/21 08:01:12;;;;;;;9.07;4.85;;;;;;;;;;5071464;28;20040;-78
2022/04/21 08:03:38;;;;;;;7.60;4.15;;;;;;;;;;5088253;28;20430;-78
2022/04/21 08:06:05;;;;;;;7.60;3.90;;;;;;;;;;5088274;28;20514;-76
2022/04/21 08:08:32;;;;;;;7.93;4.45;;;;;;;;;;5087979;28;20043;-78
2022/04/21 08:10:59;;;;;;;8.35;4.07;;;;;;;;;;5087601;28;20044;-78
2022/04/21 08:13:28;;;;;;;8.68;4.25;;;;;;;;;;5085624;28;20483;-78
2022/04/21 08:15:54;;;;;;;8.45;4.13;;;;;;;;;;5087835;28;20122;-78
2022/04/21 08:18:20;;;;;;;8.43;3.83;;;;;;;;;;5071355;28;20039;-77
2022/04/21 08:20:48;;;;;;;8.40;3.85;;;;;;;;;;5086447;28;20093;-77
2022/04/21 08:23:14;;;;;;;5.85;3.55;;;;;;;;;;5087833;28;20495;-77
2022/04/21 08:33:54;;;;;;;6.47;3.38;;;;;;;;;;5086254;28;20111;-77
2022/04/21 08:36:20;;;;;;;4.75;3.00;;;;;;;;;;5070404;28;20070;-78
2022/04/21 08:38:47;;;;;;;7.45;3.38;;;;;;;;;;5071069;28;20639;-78
2022/04/21 08:41:26;;;;;;;6.30;3.35;;;;;;;;;;5089396;28;20412;-77
2022/04/21 08:43:54;;;;;;;6.25;3.50;;;;;;;;;;5071466;28;20040;-79
2022/04/21 08:46:25;;;;;;;6.70;3.85;;;;;;;;;;5071833;28;20499;-78
2022/04/21 08:48:51;;;;;;;7.93;3.70;;;;;;;;;;5071738;28;20098;-78
2022/04/21 08:51:19;;;;;;;6.85;3.60;;;;;;;;;;5088684;28;20491;-78
2022/04/21 08:53:45;;;;;;;6.65;3.65;;;;;;;;;;5071687;28;20043;-78
2022/04/21 08:56:11;;;;;;;7.57;3.78;;;;;;;;;;5085207;28;20040;-79
2022/04/21 08:58:37;;;;;;;6.97;3.92;;;;;;;;;;5071220;28;20085;-78
2022/04/21 09:01:03;;;;;;;9.43;4.22;;;;;;;;;;5088830;28;20035;-78
2022/04/21 09:03:33;;;;;;;6.65;3.50;;;;;;;;;;5088914;28;20032;-77
2022/04/21 09:06:00;;;;;;;7.45;4.20;;;;;;;;;;5089063;28;20047;-77
2022/04/21 09:08:26;;;;;;;8.80;4.60;;;;;;;;;;5088553;28;20067;-78
2022/04/21 09:11:03;;;;;;;9.20;4.00;;;;;;;;;;5088694;28;20043;-77
2022/04/21 09:13:39;;;;;;;6.88;4.10;;;;;;;;;;5073058;28;20130;-78
2022/04/21 09:16:07;;;;;;;9.23;4.90;;;;;;;;;;5068357;28;20051;-78
2022/04/21 09:18:49;;;;;;;7.60;4.38;;;;;;;;;;5087646;28;20036;-77
2022/04/21 09:21:16;;;;;;;8.00;4.60;;;;;;;;;;5087910;28;20055;-78
2022/04/21 09:23:47;;;;;;;9.23;4.45;;;;;;;;;;5087964;28;20043;-77
2022/04/21 09:26:17;;;;;;;7.85;4.32;;;;;;;;;;5087582;28;20044;-78
2022/04/21 09:28:52;;;;;;;8.73;4.50;;;;;;;;;;5087919;28;20464;-77
2022/04/21 09:31:19;;;;;;;7.20;4.13;;;;;;;;;;5086977;28;20035;-78
2022/04/21 09:33:45;;;;;;;8.18;4.15;;;;;;;;;;5086085;28;20056;-76
2022/04/21 09:36:11;;;;;;;7.03;4.40;;;;;;;;;;5083846;28;20067;-78
2022/04/21 09:38:38;;;;;;;7.88;4.50;;;;;;;;;;5086139;28;20074;-75
2022/04/21 09:41:12;;;;;;;6.65;4.30;;;;;;;;;;5070185;28;20127;-73
2022/04/21 09:43:41;;;;;;;8.95;4.32;;;;;;;;;;5080404;28;20095;-75
2022/04/21 09:46:17;;;;;;;8.07;3.83;;;;;;;;;;5079746;28;20083;-75
2022/04/21 09:48:44;;;;;;;6.80;4.10;;;;;;;;;;5067999;28;20044;-76
2022/04/21 09:51:14;;;;;;;8.35;4.35;;;;;;;;;;5068925;28;20032;-77
2022/04/21 09:53:51;;;;;;;7.10;4.75;;;;;;;;;;5084079;28;20051;-77
2022/04/21 09:56:18;;;;;;;9.88;4.57;;;;;;;;;;5069588;28;20035;-77
2022/04/21 09:58:46;;;;;;;8.48;4.43;;;;;;;;;;5084730;28;20065;-79
2022/04/21 10:01:12;;;;;;;6.88;4.18;;;;;;;;;;5068902;28;20047;-81
2022/04/21 10:03:41;;;;;;;6.20;3.70;;;;;;;;;;5084026;28;20249;-80
2022/04/21 10:06:07;;;;;;;6.85;4.28;;;;;;;;;;5067052;28;20055;-77
2022/04/21 10:08:40;;;;;;;6.28;4.05;;;;;;;;;;5086818;28;20028;-77
2022/04/21 10:11:08;;;;;;;6.53;4.30;;;;;;;;;;5085764;28;20161;-77
2022/04/21 10:13:34;;;;;;;7.20;4.28;;;;;;;;;;5084850;28;20048;-77
2022/04/21 10:16:01;;;;;;;6.75;4.18;;;;;;;;;;5088225;28;20077;-76
2022/04/21 10:18:27;;;;;;;6.20;3.80;;;;;;;;;;5097088;28;20483;-78
2022/04/21 10:20:57;;;;;;;7.90;4.03;;;;;;;;;;5090960;28;20419;-78
2022/04/21 10:23:26;;;;;;;7.07;4.30;;;;;;;;;;5073783;28;20043;-76
2022/04/21 10:26:03;;;;;;;7.82;4.05;;;;;;;;;;5083875;28;20039;-76
2022/04/21 10:28:39;;;;;;;7.80;4.47;;;;;;;;;;5073781;28;20032;-78
2022/04/21 10:31:24;;;;;;;7.35;4.10;;;;;;;;;;5078562;28;20418;-77
2022/04/21 10:33:53;;;;;;;8.40;4.05;;;;;;;;;;5088672;28;20060;-76
2022/04/21 10:36:36;;;;;;;6.95;3.55;;;;;;;;;;5073906;28;20041;-75
2022/04/21 10:39:09;;;;;;;8.50;4.75;;;;;;;;;;5092868;28;20040;-75
2022/04/21 10:41:36;;;;;;;8.27;4.30;;;;;;;;;;5093761;28;20056;-77
2022/04/21 10:44:03;;;;;;;7.65;4.00;;;;;;;;;;5094116;28;20031;-77
2022/04/21 10:46:30;;;;;;;7.85;3.75;;;;;;;;;;5075330;28;20040;-78
2022/04/21 10:48:58;;;;;;;6.68;4.15;;;;;;;;;;5090866;28;20040;-77
2022/04/21 10:57:12;;;;;;;;;;;;;;;;;;5091160;28;20046;-77
2022/04/21 10:59:51;;;;;;;7.38;3.70;;;;;;;;;;5088600;28;19916;-78
2022/04/21 11:02:17;;;;;;;8.30;4.03;;;;;;;;;;5089957;28;20130;-78
2022/04/21 11:04:44;;;;;;;6.32;3.55;;;;;;;;;;5090145;28;20043;-77
2022/04/21 11:07:11;;;;;;;6.30;3.28;;;;;;;;;;5087978;28;20045;-77
2022/04/21 11:09:37;;;;;;;7.63;3.78;;;;;;;;;;5061453;28;20044;-75
2022/04/21 11:12:07;;;;;;;5.60;3.63;;;;;;;;;;5090316;28;20047;-75
2022/04/21 11:14:34;;;;;;;6.80;4.03;;;;;;;;;;5079292;28;20036;-78
2022/04/21 11:17:02;;;;;;;6.53;4.00;;;;;;;;;;5078564;28;20472;-82
2022/04/21 11:19:34;;;;;;;6.55;4.00;;;;;;;;;;5097360;28;20046;-81
2022/04/21 11:22:09;;;;;;;8.25;4.03;;;;;;;;;;5098091;28;20035;-82
2022/04/21 11:24:54;;;;;;;8.30;3.92;;;;;;;;;;5083614;28;20555;-83
2022/04/21 11:27:21;;;;;;;6.20;3.70;;;;;;;;;;5079397;28;20043;-83
2022/04/21 11:29:47;;;;;;;6.72;3.47;;;;;;;;;;5080212;28;20363;-80
2022/04/21 11:32:17;;;;;;;6.15;2.92;;;;;;;;;;5088926;28;20036;-82
2022/04/21 11:34:58;;;;;;;7.43;3.33;;;;;;;;;;5069909;28;20048;-81
2022/04/21 11:37:24;;;;;;;6.07;3.40;;;;;;;;;;5071162;28;20058;-82
2022/04/21 11:39:50;;;;;;;5.45;3.60;;;;;;;;;;5089080;28;20044;-78
2022/04/21 11:42:27;;;;;;;6.63;3.55;;;;;;;;;;5091031;28;20560;-81
2022/04/21 11:44:54;;;;;;;7.45;4.20;;;;;;;;;;5087625;28;20551;-77
2022/04/21 11:47:21;;;;;;;8.00;4.05;;;;;;;;;;5068519;28;20047;-77
2022/04/21 11:50:10;;;;;;;7.28;4.40;;;;;;;;;;5089241;28;20050;-77
2022/04/21 11:52:36;;;;;;;5.90;4.00;;;;;;;;;;5086962;28;20491;-77
2022/04/21 11:55:04;;;;;;;7.25;4.50;;;;;;;;;;5090212;28;20035;-77
2022/04/21 11:57:40;;;;;;;8.38;4.63;;;;;;;;;;5097471;28;20047;-77
2022/04/21 12:00:07;;;;;;;7.35;4.32;;;;;;;;;;5078546;28;20043;-77
2022/04/21 12:06:28;;;;;;;6.47;3.80;;;;;;;;;;5108394;28;20044;-77
2022/04/21 12:08:04;;;;;;;5.88;3.67;;;;;;;;;;5090880;28;20043;-77
2022/04/21 12:10:30;;;;;;;6.60;3.72;;;;;;;;;;5083086;28;20600;-77
2022/04/21 12:12:57;;;;;;;6.32;3.88;;;;;;;;;;5091405;28;20125;-77
2022/04/21 12:15:28;;;;;;;7.57;3.97;;;;;;;;;;5091401;28;20028;-78
2022/04/21 12:17:58;;;;;;;6.25;3.60;;;;;;;;;;5091355;28;20044;-76
2022/04/21 12:20:25;;;;;;;7.18;4.82;;;;;;;;;;5091279;28;20406;-77
2022/04/21 12:22:57;;;;;;;6.57;4.28;;;;;;;;;;5091256;28;20048;-76
2022/04/21 12:25:31;;;;;;;10.77;4.60;;;;;;;;;;5091105;28;20044;-77
2022/04/21 12:28:04;;;;;;;9.68;4.38;;;;;;;;;;5090703;28;20078;-77
2022/04/21 12:30:30;;;;;;;8.43;4.10;;;;;;;;;;5089866;28;20123;-77
2022/04/21 12:32:56;;;;;;;7.85;4.00;;;;;;;;;;5056192;28;20067;-77
2022/04/21 12:35:43;;;;;;;7.68;4.55;;;;;;;;;;5090829;28;20048;-77
2022/04/21 12:40:55;;;;;;;8.40;4.20;;;;;;;;;;5080929;28;20069;-77
2022/04/21 12:43:21;;;;;;;6.55;3.30;;;;;;;;;;5091080;28;20047;-78
2022/04/21 12:45:48;;;;;;;7.63;4.03;;;;;;;;;;5073633;28;20047;-77
2022/04/21 12:48:22;;;;;;;6.68;5.00;;;;;;;;;;5073452;28;20123;-76
2022/04/21 12:50:49;;;;;;;6.10;3.70;;;;;;;;;;5090553;28;20044;-78
2022/04/21 12:53:24;;;;;;;8.57;4.63;;;;;;;;;;5086274;28;20036;-77
2022/04/21 12:55:51;;;;;;;7.10;4.63;;;;;;;;;;5086264;28;20028;-76
2022/04/21 12:58:27;;;;;;;7.15;4.03;;;;;;;;;;5105401;28;20036;-76
2022/04/21 13:00:53;;;;;;;6.88;4.00;;;;;;;;;;5073871;28;20403;-77
2022/04/21 13:03:20;;;;;;;8.50;4.43;;;;;;;;;;5088671;28;20058;-77
2022/04/21 13:05:50;;;;;;;8.57;4.45;;;;;;;;;;5083507;28;20044;-77
2022/04/21 13:08:20;;;;;;;6.28;3.88;;;;;;;;;;5084296;28;20052;-77
2022/04/21 13:10:46;;;;;;;7.55;4.53;;;;;;;;;;5088180;28;20441;-78
2022/04/21 13:13:12;;;;;;;8.60;4.60;;;;;;;;;;5071225;28;20040;-78
2022/04/21 13:15:39;;;;;;;7.43;4.40;;;;;;;;;;5087957;28;20098;-77
2022/04/21 13:18:05;;;;;;;7.00;4.20;;;;;;;;;;5071290;28;20043;-76
2022/04/21 13:23:17;;;;;;;7.00;4.03;;;;;;;;;;5087788;28;20126;-77
2022/04/21 13:25:43;;;;;;;9.23;5.13;;;;;;;;;;5087946;28;20240;-77
2022/04/21 13:28:10;;;;;;;7.43;4.35;;;;;;;;;;5070922;28;20054;-77
2022/04/21 13:30:36;;;;;;;6.65;4.15;;;;;;;;;;5088262;28;20050;-77
2022/04/21 13:36:13;;;;;;;8.00;5.10;;;;;;;;;;5097284;28;20043;-79
2022/04/21 13:38:39;;;;;;;7.40;5.18;;;;;;;;;;5093200;28;20414;-77
2022/04/21 13:41:05;;;;;;;7.78;4.40;;;;;;;;;;5081667;28;20043;-77
2022/04/21 13:43:31;;;;;;;7.65;4.93;;;;;;;;;;5077597;28;20036;-77
2022/04/21 13:45:58;;;;;;;7.00;5.00;;;;;;;;;;5099764;28;20480;-77
2022/04/21 13:48:25;;;;;;;7.20;5.35;;;;;;;;;;5079732;28;20078;-77
2022/04/21 13:50:51;;;;;;;9.85;5.57;;;;;;;;;;5082310;28;20035;-78
2022/04/21 13:53:18;;;;;;;9.27;5.38;;;;;;;;;;5085059;28;20050;-77
2022/04/21 13:55:44;;;;;;;8.65;5.18;;;;;;;;;;5082866;28;20032;-78
2022/04/21 13:58:10;;;;;;;7.57;5.40;;;;;;;;;;5069331;28;20032;-77
2022/04/21 14:00:40;;;;;;;9.55;5.80;;;;;;;;;;5082823;28;20118;-76
2022/04/21 14:03:06;;;;;;;10.35;5.50;;;;;;;;;;5084779;28;20036;-77
2022/04/21 14:05:35;;;;;;;9.48;5.88;;;;;;;;;;5061450;28;20044;-76
2022/04/21 14:08:01;;;;;;;9.13;6.53;;;;;;;;;;5086957;28;20047;-76
2022/04/21 14:10:28;;;;;;;8.18;5.72;;;;;;;;;;5087178;28;20479;-76
2022/04/21 14:12:54;;;;;;;9.00;5.95;;;;;;;;;;5088350;28;20048;-78
2022/04/21 14:15:20;;;;;;;10.57;6.28;;;;;;;;;;5086183;28;20036;-77
2022/04/21 14:17:47;;;;;;;9.48;6.78;;;;;;;;;;5081052;28;20091;-78
2022/04/21 14:20:13;;;;;;;9.43;5.93;;;;;;;;;;5075843;28;20093;-77
2022/04/21 14:22:39;;;;;;;10.15;7.15;;;;;;;;;;5070257;28;20040;-76
2022/04/21 14:25:06;;;;;;;19.05;6.53;;;;;;;;;;5072478;28;20032;-77
2022/04/21 14:27:32;;;;;;;9.93;6.78;;;;;;;;;;5071652;28;20039;-77
2022/04/21 14:29:58;;;;;;;7.97;5.40;;;;;;;;;;5088975;28;20039;-78
2022/04/21 14:32:24;;;;;;;10.30;6.53;;;;;;;;;;5087328;28;20040;-77
2022/04/21 14:34:51;;;;;;;9.55;6.70;;;;;;;;;;5089287;28;20065;-77
2022/04/21 14:44:04;;;;;;;9.45;6.65;;;;;;;;;;5091734;28;20123;-79
2022/04/21 14:45:43;;;;;;;;;;;;;;;;;;5091558;28;20044;-78
2022/04/21 14:48:09;;;;;;;9.40;6.18;;;;;;;;;;5090038;28;19915;-79
2022/04/21 14:50:36;;;;;;;8.50;6.20;;;;;;;;;;5075424;28;20039;-78
2022/04/21 14:53:02;;;;;;;8.60;6.63;;;;;;;;;;5087423;28;20225;-78
2022/04/21 14:55:28;;;;;;;9.68;6.80;;;;;;;;;;5080438;28;20036;-79
2022/04/21 14:57:54;;;;;;;10.32;6.93;;;;;;;;;;5100160;28;20031;-79
2022/04/21 15:00:20;;;;;;;10.32;7.05;;;;;;;;;;5088771;28;20538;-79
2022/04/21 15:02:47;;;;;;;10.57;6.47;;;;;;;;;;5088854;28;20398;-78
2022/04/21 15:05:13;;;;;;;11.10;7.03;;;;;;;;;;5085624;28;20035;-78
2022/04/21 15:07:39;;;;;;;10.18;7.50;;;;;;;;;;5088918;28;20039;-78
2022/04/21 15:10:05;;;;;;;9.77;5.78;;;;;;;;;;5086860;28;20412;-78
2022/04/21 15:12:32;;;;;;;8.90;6.35;;;;;;;;;;5088696;28;20035;-78
2022/04/21 15:14:58;;;;;;;11.10;6.93;;;;;;;;;;5075996;28;20042;-77
2022/04/21 15:17:24;;;;;;;8.45;6.38;;;;;;;;;;5088546;28;20035;-78
2022/04/21 15:19:50;;;;;;;9.98;7.05;;;;;;;;;;5089898;28;20048;-77
2022/04/21 15:22:18;;;;;;;9.48;7.13;;;;;;;;;;5090455;28;20047;-78
2022/04/21 15:24:48;;;;;;;10.68;7.82;;;;;;;;;;5073322;28;20039;-78
2022/04/21 15:27:14;;;;;;;10.35;7.30;;;;;;;;;;5088835;28;20039;-77
2022/04/21 15:29:40;;;;;;;11.07;8.45;;;;;;;;;;5091032;28;20047;-78
2022/04/21 15:32:07;;;;;;;11.30;8.15;;;;;;;;;;5090388;28;20331;-77
2022/04/21 15:34:33;;;;;;;10.52;7.38;;;;;;;;;;5091897;28;20128;-78
2022/04/21 15:37:00;;;;;;;13.38;8.35;;;;;;;;;;5100438;27;20110;-77